createdAt,value
2022-07-30T00:01:30.734Z,42.32
2022-07-30T00:03:34.087Z,42.30
2022-07-30T00:05:35.812Z,42.71
2022-07-30T00:07:37.588Z,42.36
2022-07-30T00:09:39.332Z,42.21
2022-07-30T00:11:41.132Z,42.59
2022-07-30T00:13:42.849Z,42.48
2022-07-30T00:15:44.717Z,42.58
2022-07-30T00:17:47.660Z,42.60
2022-07-30T00:19:50.859Z,42.35
2022-07-30T00:21:55.427Z,42.53
2022-07-30T00:24:02.043Z,42.52
2022-07-30T00:26:03.987Z,42.50
2022-07-30T00:28:05.634Z,42.78
2022-07-30T00:30:07.796Z,42.68
2022-07-30T00:32:09.445Z,42.79
2022-07-30T00:34:13.003Z,42.87
2022-07-30T00:36:14.682Z,42.59
2022-07-30T00:38:16.333Z,42.60
2022-07-30T00:40:18.175Z,42.76
2022-07-30T00:42:25.688Z,42.64
2022-07-30T00:44:28.169Z,42.55
2022-07-30T00:46:29.794Z,42.76
2022-07-30T00:48:31.445Z,42.81
2022-07-30T00:50:33.126Z,43.16
2022-07-30T00:52:36.375Z,42.92
2022-07-30T00:54:38.384Z,42.90
2022-07-30T00:56:40.049Z,43.03
2022-07-30T00:58:41.751Z,43.43
2022-07-30T01:00:43.540Z,43.15
2022-07-30T01:02:45.560Z,43.10
2022-07-30T01:04:47.362Z,43.37
2022-07-30T01:06:49.028Z,43.44
2022-07-30T01:08:50.885Z,43.52
2022-07-30T01:10:52.678Z,43.07
2022-07-30T01:12:54.606Z,43.08
2022-07-30T01:14:58.128Z,43.28
2022-07-30T01:16:59.716Z,43.60
2022-07-30T01:19:22.966Z,43.64
2022-07-30T01:21:33.034Z,43.89
2022-07-30T01:23:43.964Z,43.91
2022-07-30T01:26:02.838Z,43.72
2022-07-30T01:28:07.961Z,43.81
2022-07-30T01:30:11.197Z,44.23
2022-07-30T01:32:13.820Z,44.29
2022-07-30T01:34:17.386Z,44.08
2022-07-30T01:36:21.657Z,44.49
2022-07-30T01:38:24.665Z,44.51
2022-07-30T01:40:27.857Z,44.83
2022-07-30T01:42:29.948Z,44.34
2022-07-30T01:44:32.347Z,44.61
2022-07-30T01:46:34.321Z,44.60
2022-07-30T01:48:56.460Z,44.62
2022-07-30T01:51:01.143Z,44.95
2022-07-30T01:53:03.479Z,44.69
2022-07-30T01:55:17.059Z,44.75
2022-07-30T01:57:20.942Z,45.31
2022-07-30T01:59:22.461Z,45.42
2022-07-30T02:01:24.846Z,45.47
2022-07-30T02:03:27.639Z,45.23
2022-07-30T02:05:31.589Z,45.61
2022-07-30T02:07:46.272Z,45.51
2022-07-30T02:10:06.581Z,45.38
2022-07-30T02:12:39.899Z,45.56
2022-07-30T02:14:47.554Z,45.79
2022-07-30T02:16:51.562Z,45.74
2022-07-30T02:19:01.137Z,45.67
2022-07-30T02:21:10.160Z,45.73
2022-07-30T02:23:15.693Z,45.83
2022-07-30T02:25:21.835Z,45.89
2022-07-30T02:27:28.793Z,45.82
2022-07-30T02:29:33.883Z,46.00
2022-07-30T02:31:36.454Z,45.87
2022-07-30T02:33:41.194Z,45.93
2022-07-30T02:35:52.147Z,46.01
2022-07-30T02:37:54.738Z,46.06
2022-07-30T02:39:57.105Z,46.11
2022-07-30T02:41:59.395Z,46.08
2022-07-30T02:44:02.069Z,46.41
2022-07-30T02:46:04.666Z,46.22
2022-07-30T02:48:08.118Z,46.62
2022-07-30T02:50:09.745Z,46.28
2022-07-30T02:52:13.697Z,46.25
2022-07-30T02:54:16.512Z,46.36
2022-07-30T02:56:20.291Z,46.55
2022-07-30T02:58:23.725Z,46.80
2022-07-30T03:00:26.160Z,46.63
2022-07-30T03:02:29.370Z,46.76
2022-07-30T03:04:32.116Z,46.81
2022-07-30T03:06:33.786Z,47.21
2022-07-30T03:08:36.201Z,47.05
2022-07-30T03:10:38.786Z,47.30
2022-07-30T03:12:42.500Z,47.09
2022-07-30T03:14:44.163Z,47.15
2022-07-30T03:16:55.944Z,47.62
2022-07-30T03:18:59.431Z,47.60
2022-07-30T03:21:00.991Z,47.54
2022-07-30T03:23:03.273Z,47.68
2022-07-30T03:25:05.802Z,47.76
2022-07-30T03:27:08.349Z,47.83
2022-07-30T03:29:10.861Z,47.72
2022-07-30T03:31:14.946Z,48.10
2022-07-30T03:33:16.981Z,47.85
2022-07-30T03:35:20.386Z,48.22
2022-07-30T03:37:22.254Z,48.07
2022-07-30T03:39:24.931Z,47.93
2022-07-30T03:41:26.782Z,48.00
2022-07-30T03:43:32.323Z,48.39
2022-07-30T03:45:37.126Z,48.71
2022-07-30T03:47:41.632Z,48.31
2022-07-30T03:49:43.425Z,48.38
2022-07-30T03:51:46.448Z,48.63
2022-07-30T03:53:48.394Z,48.36
2022-07-30T03:55:51.330Z,48.29
2022-07-30T03:57:53.029Z,48.66
2022-07-30T03:59:54.742Z,48.49
2022-07-30T04:02:06.022Z,48.39
2022-07-30T04:04:10.401Z,48.27
2022-07-30T04:06:12.101Z,47.97
2022-07-30T04:08:13.791Z,48.36
2022-07-30T04:10:16.249Z,48.60
2022-07-30T04:12:17.866Z,49.68
2022-07-30T04:14:19.730Z,50.42
2022-07-30T04:16:41.483Z,51.26
2022-07-30T04:18:48.189Z,51.07
2022-07-30T04:20:51.170Z,51.34
2022-07-30T04:22:53.356Z,50.87
2022-07-30T04:24:56.803Z,51.66
2022-07-30T04:27:02.840Z,53.06
2022-07-30T04:29:07.180Z,53.08
2022-07-30T04:31:08.995Z,53.76
2022-07-30T04:33:10.725Z,54.06
2022-07-30T04:35:12.358Z,54.22
2022-07-30T04:37:34.047Z,54.31
2022-07-30T04:39:35.970Z,54.86
2022-07-30T04:41:48.966Z,55.26
2022-07-30T04:43:51.833Z,55.47
2022-07-30T04:45:53.485Z,55.92
2022-07-30T04:47:55.337Z,56.07
2022-07-30T04:49:57.501Z,56.10
2022-07-30T04:51:59.703Z,55.90
2022-07-30T04:54:02.369Z,55.50
2022-07-30T04:56:04.756Z,55.84
2022-07-30T04:58:07.512Z,55.09
2022-07-30T05:00:09.840Z,55.33
2022-07-30T05:02:12.386Z,55.01
2022-07-30T05:04:14.314Z,54.48
2022-07-30T05:06:17.289Z,54.86
2022-07-30T05:08:19.184Z,54.09
2022-07-30T05:10:20.906Z,53.36
2022-07-30T05:12:32.699Z,52.85
2022-07-30T05:14:34.365Z,52.65
2022-07-30T05:16:36.077Z,52.81
2022-07-30T05:18:38.069Z,52.64
2022-07-30T05:20:40.028Z,52.22
2022-07-30T05:22:42.832Z,52.56
2022-07-30T05:24:52.680Z,52.38
2022-07-30T05:26:54.305Z,52.30
2022-07-30T05:28:56.966Z,52.22
2022-07-30T05:30:58.962Z,52.10
2022-07-30T05:33:01.426Z,52.01
2022-07-30T05:35:10.029Z,51.89
2022-07-30T05:37:12.431Z,51.27
2022-07-30T05:39:14.331Z,50.51
2022-07-30T05:41:30.607Z,50.37
2022-07-30T05:43:34.149Z,50.51
2022-07-30T05:45:36.041Z,50.53
2022-07-30T05:47:37.807Z,50.51
2022-07-30T05:49:39.475Z,49.86
2022-07-30T05:51:41.955Z,49.42
2022-07-30T05:53:43.901Z,49.04
2022-07-30T05:55:45.650Z,49.10
2022-07-30T05:57:47.269Z,49.18
2022-07-30T05:59:50.454Z,49.58
2022-07-30T06:01:52.176Z,49.82
2022-07-30T06:03:54.804Z,49.89
2022-07-30T06:05:56.618Z,49.89
2022-07-30T06:07:58.497Z,49.90
2022-07-30T06:10:00.488Z,49.80
2022-07-30T06:12:02.419Z,49.05
2022-07-30T06:14:04.106Z,49.35
2022-07-30T06:16:05.847Z,48.92
2022-07-30T06:18:07.633Z,48.80
2022-07-30T06:20:10.470Z,48.42
2022-07-30T06:22:12.117Z,48.16
2022-07-30T06:24:13.787Z,47.59
2022-07-30T06:26:15.526Z,47.58
2022-07-30T06:30:40.878Z,47.88
2022-07-30T06:32:43.739Z,47.29
2022-07-30T06:34:45.672Z,47.11
2022-07-30T06:36:47.304Z,46.99
2022-07-30T06:38:48.989Z,46.95
2022-07-30T06:40:50.683Z,46.59
2022-07-30T06:42:52.429Z,46.34
2022-07-30T06:44:54.069Z,46.26
2022-07-30T06:46:55.888Z,46.36
2022-07-30T06:48:57.574Z,45.68
2022-07-30T06:50:59.460Z,45.60
2022-07-30T06:53:01.122Z,44.96
2022-07-30T06:55:03.133Z,44.09
2022-07-30T06:57:04.856Z,43.91
2022-07-30T06:59:06.632Z,44.48
2022-07-30T07:01:10.843Z,44.09
2022-07-30T07:03:13.229Z,44.42
2022-07-30T07:05:15.205Z,44.50
2022-07-30T07:07:31.465Z,44.21
2022-07-30T07:09:38.562Z,43.95
2022-07-30T07:11:46.493Z,43.40
2022-07-30T07:13:48.214Z,43.16
2022-07-30T07:15:49.952Z,43.38
2022-07-30T07:17:51.562Z,43.34
2022-07-30T07:20:00.774Z,42.94
2022-07-30T07:22:03.953Z,43.01
2022-07-30T07:24:05.877Z,42.72
2022-07-30T07:26:07.549Z,43.25
2022-07-30T07:28:12.369Z,42.86
2022-07-30T07:30:15.096Z,42.89
2022-07-30T07:32:16.888Z,42.52
2022-07-30T07:34:19.273Z,43.27
2022-07-30T07:36:22.260Z,43.59
2022-07-30T07:38:24.091Z,42.91
2022-07-30T07:40:25.806Z,42.98
2022-07-30T07:42:27.462Z,42.79
2022-07-30T07:44:29.138Z,42.72
2022-07-30T07:46:33.388Z,42.06
2022-07-30T07:48:36.107Z,42.05
2022-07-30T07:50:37.960Z,42.40
2022-07-30T07:52:39.629Z,42.61
2022-07-30T07:54:41.474Z,42.30
2022-07-30T07:56:43.673Z,41.87
2022-07-30T07:58:47.429Z,41.98
2022-07-30T08:00:51.313Z,43.43
2022-07-30T08:02:53.251Z,44.26
2022-07-30T08:04:54.941Z,42.34
2022-07-30T08:06:56.590Z,41.05
2022-07-30T08:08:58.269Z,40.28
2022-07-30T08:10:59.959Z,40.56
2022-07-30T08:13:03.995Z,41.00
2022-07-30T08:15:06.556Z,41.79
2022-07-30T08:17:08.796Z,41.52
2022-07-30T08:19:10.768Z,41.26
2022-07-30T08:21:12.454Z,40.07
2022-07-30T08:23:14.147Z,41.90
2022-07-30T08:25:21.817Z,39.67
2022-07-30T08:27:26.413Z,39.29
2022-07-30T08:29:29.877Z,38.29
2022-07-30T08:31:31.541Z,38.64
2022-07-30T08:33:33.324Z,38.12
2022-07-30T08:35:34.960Z,38.67
2022-07-30T08:37:37.536Z,38.34
2022-07-30T08:39:39.246Z,38.44
2022-07-30T08:41:41.922Z,38.96
2022-07-30T08:43:47.358Z,38.12
2022-07-30T08:47:53.052Z,38.60
2022-07-30T08:49:55.906Z,37.45
2022-07-30T08:51:57.714Z,37.19
2022-07-30T08:54:01.090Z,37.78
2022-07-30T08:56:04.492Z,37.37
2022-07-30T08:58:15.441Z,37.30
2022-07-30T09:00:21.260Z,35.91
2022-07-30T09:02:27.370Z,35.40
2022-07-30T09:04:29.723Z,35.35
2022-07-30T09:06:31.381Z,35.74
2022-07-30T09:08:34.037Z,35.66
2022-07-30T09:10:35.754Z,34.96
2022-07-30T09:12:41.864Z,35.20
2022-07-30T09:15:01.725Z,35.34
2022-07-30T09:17:03.745Z,35.15
2022-07-30T09:19:13.379Z,35.31
2022-07-30T09:21:16.484Z,35.08
2022-07-30T09:23:18.118Z,34.58
2022-07-30T09:25:44.133Z,34.24
2022-07-30T09:27:48.507Z,34.45
2022-07-30T09:29:58.442Z,34.30
2022-07-30T09:32:04.437Z,34.77
2022-07-30T09:34:23.891Z,34.75
2022-07-30T09:36:31.740Z,35.13
2022-07-30T09:38:47.906Z,35.16
2022-07-30T09:40:57.669Z,34.91
2022-07-30T09:43:27.878Z,34.19
2022-07-30T09:45:34.867Z,34.11
2022-07-30T09:47:45.066Z,34.06
2022-07-30T09:49:47.421Z,34.32
2022-07-30T09:51:56.596Z,33.47
2022-07-30T09:54:01.714Z,33.62
2022-07-30T09:56:24.674Z,33.88
2022-07-30T09:58:39.798Z,33.15
2022-07-30T10:00:47.329Z,33.25
2022-07-30T10:02:50.512Z,33.23
2022-07-30T10:04:52.394Z,33.40
2022-07-30T10:06:54.925Z,33.51
2022-07-30T10:08:57.249Z,33.61
2022-07-30T10:10:59.966Z,33.47
2022-07-30T10:13:10.759Z,33.03
2022-07-30T10:15:20.226Z,33.13
2022-07-30T10:17:22.495Z,32.88
2022-07-30T10:19:40.417Z,32.40
2022-07-30T10:21:44.454Z,32.26
2022-07-30T10:23:46.527Z,32.64
2022-07-30T10:25:55.790Z,32.62
2022-07-30T10:27:57.956Z,32.46
2022-07-30T10:30:03.495Z,32.71
2022-07-30T10:32:06.328Z,33.24
2022-07-30T10:34:13.797Z,31.81
2022-07-30T10:36:15.606Z,31.95
2022-07-30T10:38:21.741Z,31.51
2022-07-30T10:40:39.419Z,31.51
2022-07-30T10:43:17.567Z,31.98
2022-07-30T10:45:24.057Z,31.22
2022-07-30T10:47:33.566Z,31.25
2022-07-30T10:49:41.144Z,31.72
2022-07-30T10:51:49.955Z,31.81
2022-07-30T10:53:51.588Z,31.89
2022-07-30T10:56:10.905Z,31.90
2022-07-30T10:58:14.254Z,32.14
2022-07-30T11:00:17.947Z,30.92
2022-07-30T11:02:21.223Z,31.18
2022-07-30T11:04:29.719Z,31.90
2022-07-30T11:06:31.536Z,31.83
2022-07-30T11:08:43.293Z,31.46
2022-07-30T11:10:45.537Z,31.41
2022-07-30T11:12:53.031Z,31.09
2022-07-30T11:15:07.233Z,31.29
2022-07-30T11:17:20.466Z,31.22
2022-07-30T11:19:55.473Z,31.03
2022-07-30T11:21:49.525Z,30.93
2022-07-30T11:23:56.639Z,30.46
2022-07-30T11:25:58.570Z,30.94
2022-07-30T11:28:01.446Z,30.33
2022-07-30T11:30:29.964Z,30.67
2022-07-30T11:32:34.140Z,30.23
2022-07-30T11:34:35.689Z,30.23
2022-07-30T11:36:37.762Z,30.79
2022-07-30T11:39:05.151Z,30.60
2022-07-30T11:41:09.695Z,31.01
2022-07-30T11:43:36.998Z,30.22
2022-07-30T11:45:39.368Z,30.52
2022-07-30T11:47:43.642Z,30.95
2022-07-30T11:49:48.176Z,31.34
2022-07-30T11:51:50.940Z,31.65
2022-07-30T11:54:03.723Z,32.08
2022-07-30T11:56:05.884Z,31.16
2022-07-30T11:58:09.633Z,31.79
2022-07-30T12:00:11.681Z,31.54
2022-07-30T12:02:13.305Z,31.42
2022-07-30T12:04:15.015Z,31.93
2022-07-30T12:06:18.268Z,31.68
2022-07-30T12:08:35.429Z,31.85
2022-07-30T12:10:39.639Z,31.65
2022-07-30T12:12:41.400Z,31.59
2022-07-30T12:14:42.990Z,31.00
2022-07-30T12:16:53.298Z,30.94
2022-07-30T12:18:55.489Z,30.82
2022-07-30T12:21:02.027Z,31.36
2022-07-30T12:23:09.789Z,31.49
2022-07-30T12:25:12.282Z,31.15
2022-07-30T12:27:14.045Z,30.49
2022-07-30T12:29:15.802Z,30.65
2022-07-30T12:31:18.349Z,29.83
2022-07-30T12:33:20.825Z,30.01
2022-07-30T12:35:22.557Z,30.12
2022-07-30T12:37:25.117Z,30.08
2022-07-30T12:39:27.439Z,30.17
2022-07-30T12:41:46.608Z,30.45
2022-07-30T12:43:49.769Z,29.49
2022-07-30T12:45:58.512Z,29.72
2022-07-30T12:48:00.329Z,29.84
2022-07-30T12:50:16.648Z,29.81
2022-07-30T12:52:29.330Z,30.11
2022-07-30T12:54:32.757Z,30.02
2022-07-30T12:56:34.885Z,30.06
2022-07-30T12:58:37.797Z,30.67
2022-07-30T13:00:52.300Z,30.08
2022-07-30T13:02:54.726Z,29.88
2022-07-30T13:05:10.973Z,30.08
2022-07-30T13:07:13.506Z,30.05
2022-07-30T13:09:20.343Z,30.25
2022-07-30T13:11:48.404Z,29.75
2022-07-30T13:13:51.612Z,29.88
2022-07-30T13:16:04.494Z,29.47
2022-07-30T13:18:06.146Z,30.30
2022-07-30T13:20:08.644Z,30.01
2022-07-30T13:22:10.382Z,30.38
2022-07-30T13:24:17.820Z,30.41
2022-07-30T13:26:20.113Z,30.45
2022-07-30T13:28:21.876Z,30.12
2022-07-30T13:30:23.547Z,29.85
2022-07-30T13:32:25.152Z,30.30
2022-07-30T13:34:26.865Z,30.31
2022-07-30T13:36:28.566Z,30.50
2022-07-30T13:38:30.258Z,30.37
2022-07-30T13:40:33.063Z,30.66
2022-07-30T13:42:34.989Z,30.61
2022-07-30T13:44:36.625Z,30.42
2022-07-30T13:46:41.049Z,30.23
2022-07-30T13:48:43.088Z,30.24
2022-07-30T13:50:44.880Z,30.30
2022-07-30T13:52:47.346Z,30.33
2022-07-30T13:54:51.344Z,30.82
2022-07-30T13:56:53.532Z,31.39
2022-07-30T13:58:55.275Z,31.10
2022-07-30T14:00:58.004Z,31.68
2022-07-30T14:03:01.173Z,31.25
2022-07-30T14:05:08.899Z,31.69
2022-07-30T14:07:10.522Z,30.83
2022-07-30T14:09:12.371Z,31.40
2022-07-30T14:11:14.555Z,30.90
2022-07-30T14:13:21.325Z,31.08
2022-07-30T14:15:24.458Z,31.19
2022-07-30T14:17:26.129Z,31.15
2022-07-30T14:19:27.825Z,31.84
2022-07-30T14:21:29.478Z,32.09
2022-07-30T14:23:31.284Z,31.73
2022-07-30T14:25:32.980Z,31.47
2022-07-30T14:27:34.715Z,32.09
2022-07-30T14:29:36.306Z,31.92
2022-07-30T14:31:38.068Z,32.59
2022-07-30T14:33:39.749Z,32.17
2022-07-30T14:35:41.378Z,32.20
2022-07-30T14:37:43.354Z,32.57
2022-07-30T14:39:45.072Z,31.81
2022-07-30T14:41:46.706Z,31.91
2022-07-30T14:43:48.335Z,31.75
2022-07-30T14:45:51.084Z,31.47
2022-07-30T14:47:52.775Z,31.77
2022-07-30T14:49:54.441Z,30.46
2022-07-30T14:51:56.171Z,30.71
2022-07-30T14:53:57.918Z,30.97
2022-07-30T14:55:59.624Z,31.45
2022-07-30T14:58:01.257Z,30.79
2022-07-30T15:00:04.843Z,30.92
2022-07-30T15:02:10.489Z,30.98
2022-07-30T15:04:12.677Z,31.45
2022-07-30T15:06:15.559Z,32.24
2022-07-30T15:08:17.318Z,33.45
2022-07-30T15:10:19.167Z,33.80
2022-07-30T15:12:26.546Z,33.51
2022-07-30T15:14:29.150Z,34.28
2022-07-30T15:16:30.944Z,37.04
2022-07-30T15:18:33.214Z,39.59
2022-07-30T15:20:34.852Z,39.87
2022-07-30T15:22:36.721Z,39.95
2022-07-30T15:24:38.393Z,39.15
2022-07-30T15:26:40.027Z,37.98
2022-07-30T15:28:42.146Z,37.20
2022-07-30T15:30:43.794Z,37.53
2022-07-30T15:32:45.843Z,38.84
2022-07-30T15:34:47.461Z,39.00
2022-07-30T15:36:49.098Z,39.23
2022-07-30T15:38:51.002Z,38.39
2022-07-30T15:40:53.241Z,37.67
2022-07-30T15:42:54.918Z,37.24
2022-07-30T15:45:15.863Z,36.97
2022-07-30T15:47:18.131Z,36.32
2022-07-30T15:49:19.945Z,35.92
2022-07-30T15:51:21.698Z,35.16
2022-07-30T15:53:23.645Z,34.85
2022-07-30T15:55:25.356Z,34.38
2022-07-30T15:57:27.025Z,33.77
2022-07-30T15:59:29.210Z,33.59
2022-07-30T16:01:30.912Z,33.88
2022-07-30T16:03:32.611Z,33.74
2022-07-30T16:05:51.702Z,33.91
2022-07-30T16:07:54.490Z,34.62
2022-07-30T16:09:56.182Z,35.08
2022-07-30T16:11:58.599Z,35.16
2022-07-30T16:14:00.582Z,35.76
2022-07-30T16:16:02.255Z,35.94
2022-07-30T16:18:04.583Z,35.66
2022-07-30T16:20:06.788Z,35.51
2022-07-30T16:22:08.436Z,35.58
2022-07-30T16:24:10.132Z,36.54
2022-07-30T16:26:12.062Z,37.29
2022-07-30T16:28:13.894Z,37.58
2022-07-30T16:30:15.602Z,37.90
2022-07-30T16:32:17.349Z,38.11
2022-07-30T16:34:22.912Z,38.20
2022-07-30T16:36:28.297Z,38.21
2022-07-30T16:38:30.067Z,38.42
2022-07-30T16:40:31.895Z,38.83
2022-07-30T16:42:33.998Z,39.12
2022-07-30T16:44:35.714Z,39.39
2022-07-30T16:46:38.768Z,39.26
2022-07-30T16:48:40.484Z,39.28
2022-07-30T16:50:42.518Z,39.62
2022-07-30T16:52:44.162Z,39.63
2022-07-30T16:54:45.914Z,40.16
2022-07-30T16:56:47.641Z,40.22
2022-07-30T16:58:49.290Z,40.23
2022-07-30T17:00:50.963Z,40.05
2022-07-30T17:02:52.727Z,40.53
2022-07-30T17:04:54.433Z,40.67
2022-07-30T17:06:56.094Z,40.93
2022-07-30T17:08:57.753Z,40.61
2022-07-30T17:10:59.442Z,40.88
2022-07-30T17:13:01.157Z,41.07
2022-07-30T17:15:04.758Z,41.12
2022-07-30T17:17:08.685Z,41.19
2022-07-30T17:19:13.834Z,41.64
2022-07-30T17:21:15.518Z,42.76
2022-07-30T17:23:17.311Z,43.86
2022-07-30T17:25:18.945Z,45.01
2022-07-30T17:27:20.781Z,46.91
2022-07-30T17:29:22.449Z,47.83
2022-07-30T17:31:24.154Z,48.37
2022-07-30T17:33:44.435Z,49.65
2022-07-30T17:35:46.073Z,49.17
2022-07-30T17:37:47.856Z,49.44
2022-07-30T17:40:27.225Z,48.94
2022-07-30T17:42:12.010Z,48.62
2022-07-30T17:44:14.055Z,48.70
2022-07-30T17:46:15.961Z,48.66
2022-07-30T17:48:18.780Z,48.48
2022-07-30T17:50:20.472Z,48.77
2022-07-30T17:52:26.490Z,48.20
2022-07-30T17:54:28.810Z,47.79
2022-07-30T17:56:30.614Z,47.29
2022-07-30T17:58:32.314Z,47.11
2022-07-30T18:00:35.383Z,46.81
2022-07-30T18:02:37.509Z,46.46
2022-07-30T18:04:39.259Z,45.95
2022-07-30T18:06:40.917Z,46.07
2022-07-30T18:08:42.540Z,45.98
2022-07-30T18:10:44.619Z,45.57
2022-07-30T18:12:48.951Z,45.72
2022-07-30T18:14:52.062Z,46.08
2022-07-30T18:16:54.480Z,46.49
2022-07-30T18:18:56.136Z,48.02
2022-07-30T18:20:57.736Z,49.56
2022-07-30T18:23:00.079Z,51.67
2022-07-30T18:25:02.172Z,53.61
2022-07-30T18:27:04.039Z,56.43
2022-07-30T18:29:08.827Z,58.61
2022-07-30T18:31:12.599Z,59.88
2022-07-30T18:33:15.316Z,62.83
2022-07-30T18:35:17.211Z,64.99
2022-07-30T18:37:18.923Z,66.34
2022-07-30T18:39:20.783Z,66.01
2022-07-30T18:41:23.692Z,67.34
2022-07-30T18:43:26.819Z,66.76
2022-07-30T18:45:28.672Z,66.95
2022-07-30T18:47:30.351Z,68.28
2022-07-30T18:49:37.193Z,68.16
2022-07-30T18:51:39.493Z,69.56
2022-07-30T18:53:42.423Z,69.87
2022-07-30T18:55:44.645Z,70.27
2022-07-30T18:57:46.309Z,70.26
2022-07-30T18:59:53.981Z,70.75
2022-07-30T19:01:55.610Z,70.88
2022-07-30T19:03:57.267Z,70.84
2022-07-30T19:05:58.902Z,71.32
2022-07-30T19:08:00.617Z,71.03
2022-07-30T19:10:02.355Z,70.79
2022-07-30T19:12:05.004Z,70.90
2022-07-30T19:14:07.082Z,71.58
2022-07-30T19:16:09.933Z,71.51
2022-07-30T19:18:12.046Z,71.64
2022-07-30T19:20:13.735Z,71.37
2022-07-30T19:22:15.762Z,70.66
2022-07-30T19:24:17.812Z,71.46
2022-07-30T19:26:19.538Z,71.49
2022-07-30T19:28:21.336Z,72.08
2022-07-30T19:30:22.990Z,72.55
2022-07-30T19:32:24.869Z,72.67
2022-07-30T19:34:26.496Z,72.27
2022-07-30T19:36:29.471Z,72.54
2022-07-30T19:38:31.124Z,72.89
2022-07-30T19:40:33.214Z,73.49
2022-07-30T19:42:34.891Z,73.71
2022-07-30T19:44:40.466Z,72.87
2022-07-30T19:46:43.215Z,72.82
2022-07-30T19:48:45.155Z,73.96
2022-07-30T19:50:48.385Z,74.14
2022-07-30T19:52:51.828Z,73.32
2022-07-30T19:54:53.466Z,74.10
2022-07-30T19:56:55.084Z,74.36
2022-07-30T19:58:56.733Z,74.73
2022-07-30T20:00:58.623Z,75.44
2022-07-30T20:03:00.333Z,74.30
2022-07-30T20:05:06.153Z,73.97
2022-07-30T20:07:12.733Z,74.21
2022-07-30T20:09:16.308Z,74.39
2022-07-30T20:11:35.151Z,75.25
2022-07-30T20:13:44.437Z,75.86
2022-07-30T20:15:49.693Z,76.13
2022-07-30T20:17:55.265Z,76.33
2022-07-30T20:19:59.385Z,76.00
2022-07-30T20:22:01.277Z,76.56
2022-07-30T20:24:03.067Z,76.74
2022-07-30T20:26:12.631Z,77.47
2022-07-30T20:28:14.517Z,77.98
2022-07-30T20:30:25.395Z,77.10
2022-07-30T20:32:27.350Z,77.32
2022-07-30T20:34:30.814Z,77.27
2022-07-30T20:36:35.042Z,77.94
2022-07-30T20:38:44.399Z,77.92
2022-07-30T20:40:47.468Z,77.97
2022-07-30T20:42:49.144Z,80.40
2022-07-30T20:44:53.417Z,77.73
2022-07-30T20:46:55.185Z,76.34
2022-07-30T20:49:01.456Z,75.49
2022-07-30T20:51:06.313Z,76.93
2022-07-30T20:53:11.230Z,77.64
2022-07-30T20:55:19.286Z,77.58
2022-07-30T20:57:44.573Z,79.70
2022-07-30T20:59:45.547Z,82.85
2022-07-30T21:01:47.584Z,82.76
2022-07-30T21:03:49.217Z,75.67
2022-07-30T21:05:51.265Z,78.68
2022-07-30T21:07:54.706Z,79.66
2022-07-30T21:09:57.224Z,77.59
2022-07-30T21:12:00.109Z,74.15
2022-07-30T21:14:01.880Z,71.96
2022-07-30T21:16:04.077Z,72.21
2022-07-30T21:18:17.895Z,71.60
2022-07-30T21:20:27.746Z,70.76
2022-07-30T21:22:29.859Z,71.51
2022-07-30T21:24:31.529Z,73.53
2022-07-30T21:26:33.822Z,75.13
2022-07-30T21:28:36.288Z,76.32
2022-07-30T21:30:38.101Z,78.17
2022-07-30T21:32:40.562Z,80.28
2022-07-30T21:34:42.680Z,81.64
2022-07-30T21:36:44.522Z,80.68
2022-07-30T21:38:46.209Z,80.93
2022-07-30T21:40:48.753Z,79.95
2022-07-30T21:42:51.762Z,80.61
2022-07-30T21:44:54.513Z,81.18
2022-07-30T21:46:56.227Z,81.33
2022-07-30T21:48:59.470Z,80.22
2022-07-30T21:51:01.289Z,80.03
2022-07-30T21:53:02.993Z,79.79
2022-07-30T21:55:05.135Z,79.46
2022-07-30T21:57:06.975Z,78.62
2022-07-30T21:59:08.820Z,77.19
2022-07-30T22:01:16.693Z,77.96
2022-07-30T22:04:05.338Z,78.59
2022-07-30T22:05:42.374Z,80.61
2022-07-30T22:07:44.023Z,81.64
2022-07-30T22:09:45.700Z,81.81
2022-07-30T22:11:47.810Z,81.91
2022-07-30T22:13:51.278Z,81.00
2022-07-30T22:15:55.390Z,80.05
2022-07-30T22:17:58.581Z,79.57
2022-07-30T22:20:02.358Z,78.07
2022-07-30T22:22:26.060Z,78.68
2022-07-30T22:24:28.878Z,78.96
2022-07-30T22:26:32.418Z,78.55
2022-07-30T22:28:34.084Z,79.08
2022-07-30T22:30:35.808Z,80.70
2022-07-30T22:32:38.171Z,81.22
2022-07-30T22:34:40.521Z,82.09
2022-07-30T22:36:42.410Z,82.04
2022-07-30T22:38:58.731Z,81.71
2022-07-30T22:41:01.619Z,81.03
2022-07-30T22:43:09.382Z,80.08
2022-07-30T22:45:14.223Z,79.12
2022-07-30T22:47:21.005Z,78.73
2022-07-30T22:49:51.965Z,77.86
2022-07-30T22:52:03.710Z,77.80
2022-07-30T22:54:13.352Z,77.85
2022-07-30T22:56:15.775Z,77.26
2022-07-30T22:58:18.705Z,77.16
2022-07-30T23:00:27.676Z,76.45
2022-07-30T23:02:30.240Z,76.60
2022-07-30T23:04:31.920Z,76.52
2022-07-30T23:06:34.990Z,76.10
2022-07-30T23:08:36.672Z,75.47
2022-07-30T23:10:38.348Z,75.69
2022-07-30T23:12:42.109Z,75.96
2022-07-30T23:14:44.037Z,76.53
2022-07-30T23:16:50.270Z,76.85
2022-07-30T23:18:52.844Z,78.02
2022-07-30T23:20:59.893Z,77.98
2022-07-30T23:23:03.082Z,77.96
2022-07-30T23:25:06.428Z,78.32
2022-07-30T23:27:08.160Z,78.47
2022-07-30T23:29:13.916Z,77.95
2022-07-30T23:31:17.602Z,77.30
2022-07-30T23:33:19.386Z,77.56
2022-07-30T23:35:21.219Z,77.37
2022-07-30T23:37:22.930Z,78.05
2022-07-30T23:39:24.605Z,77.63
2022-07-30T23:41:30.691Z,77.23
2022-07-30T23:43:35.982Z,76.96
2022-07-30T23:45:37.687Z,76.72
2022-07-30T23:47:56.563Z,76.10
2022-07-30T23:50:01.586Z,76.17
2022-07-30T23:52:03.568Z,76.16
2022-07-30T23:54:06.466Z,75.76
2022-07-30T23:56:17.056Z,75.81
2022-07-30T23:58:18.801Z,75.59
